Time;durP1;ratioP1;P1;durP2;ratioP2;P2;SDS_P1;SDS_P2;PMS_P1;PMS_P2;Temp;Humidity;BMP_temperature;BMP_pressure;BME280_temperature;BME280_humidity;BME280_pressure;Samples;Min_cycle;Max_cycle;Signal;HPM_P1;HPM_P2
2021/01/23 00:03:03;;;;;;;0.30;0.30;;;;;;;10.30;70.82;97340.88;5151356;23;20248;-82
2021/01/23 00:23:08;;;;;;;0.20;0.20;;;;;;;10.22;71.52;97300.50;5145635;23;20226;-80
2021/01/23 00:26:15;;;;;;;0.20;0.20;;;;;;;10.08;71.65;97282.31;4954250;23;20241;-83
2021/01/23 00:29:34;;;;;;;0.30;0.30;;;;;;;10.14;71.87;97305.31;4959275;23;20220;-82
2021/01/23 00:32:49;;;;;;;0.20;0.20;;;;;;;10.15;71.27;97288.22;4940300;29;20226;-82
2021/01/23 00:36:05;;;;;;;0.30;0.30;;;;;;;10.23;71.23;97305.56;4939939;29;20200;-82
2021/01/23 00:39:50;;;;;;;0.20;0.20;;;;;;;10.18;71.51;97300.22;4938996;29;20203;-82
2021/01/23 00:43:19;;;;;;;0.30;0.30;;;;;;;10.10;71.68;97296.22;4975231;23;20245;-82
2021/01/23 00:51:06;;;;;;;0.30;0.30;;;;;;;10.06;71.56;97302.38;4820187;29;20223;-81
2021/01/23 00:57:23;;;;;;;0.30;0.30;;;;;;;10.00;71.94;97314.97;4956857;29;20236;-82
2021/01/23 01:04:34;;;;;;;0.30;0.30;;;;;;;9.92;71.97;97312.84;4974899;23;20245;-82
2021/01/23 01:07:31;;;;;;;0.30;0.30;;;;;;;9.82;72.71;97314.75;4983714;23;20232;-82
2021/01/23 01:10:27;;;;;;;0.30;0.30;;;;;;;9.82;72.61;97317.41;4958029;29;20230;-82
2021/01/23 01:13:15;;;;;;;0.20;0.20;;;;;;;9.50;72.74;97282.97;4976817;23;20210;-81
2021/01/23 01:16:13;;;;;;;0.30;0.30;;;;;;;9.70;72.82;97323.06;5186819;23;20264;-82
2021/01/23 01:19:17;;;;;;;0.30;0.30;;;;;;;9.67;73.35;97318.25;4950290;23;20686;-82
2021/01/23 01:22:04;;;;;;;0.30;0.30;;;;;;;9.48;73.12;97298.47;5041495;23;20238;-82
2021/01/23 01:25:26;;;;;;;0.20;0.20;;;;;;;9.55;73.47;97317.72;4958246;23;20223;-82
2021/01/23 01:28:51;;;;;;;0.30;0.30;;;;;;;9.32;73.79;97291.56;4957215;28;20227;-82
2021/01/23 01:31:48;;;;;;;0.20;0.20;;;;;;;9.14;74.16;97276.88;5050573;23;20198;-83
2021/01/23 01:35:12;;;;;;;0.20;0.20;;;;;;;9.30;74.25;97307.84;4981537;28;20253;-82
2021/01/23 01:38:33;;;;;;;0.30;0.30;;;;;;;9.18;74.46;97286.75;5076273;23;20319;-82
2021/01/23 01:42:24;;;;;;;0.30;0.30;;;;;;;9.19;73.58;97271.53;4923569;29;20226;-82
2021/01/23 01:45:32;;;;;;;0.30;0.30;;;;;;;9.26;74.46;97294.22;4924783;29;20235;-81
2021/01/23 01:48:59;;;;;;;0.30;0.30;;;;;;;9.21;74.44;97280.84;4997763;23;20217;-82
2021/01/23 01:52:19;;;;;;;0.30;0.30;;;;;;;9.33;74.69;97304.66;4983734;23;20305;-82
2021/01/23 01:55:29;;;;;;;0.23;0.23;;;;;;;9.31;74.57;97298.75;5212610;23;20226;-82
2021/01/23 01:58:27;;;;;;;0.20;0.20;;;;;;;9.19;73.95;97263.50;4984481;23;20223;-82
2021/01/23 02:01:14;;;;;;;0.30;0.30;;;;;;;9.48;73.54;97277.09;4967451;23;20218;-84
2021/01/23 02:05:11;;;;;;;0.30;0.30;;;;;;;9.60;73.52;97297.16;4962454;23;20215;-82
2021/01/23 02:08:55;;;;;;;0.20;0.20;;;;;;;9.70;72.91;97273.03;4983332;23;20236;-82
2021/01/23 02:12:57;;;;;;;0.30;0.30;;;;;;;9.43;72.95;97221.78;4917409;23;20241;-81
2021/01/23 02:17:04;;;;;;;0.30;0.30;;;;;;;9.44;72.22;97235.94;4926853;23;20220;-82
2021/01/23 02:20:40;;;;;;;0.30;0.30;;;;;;;9.70;72.48;97258.91;4979981;23;20216;-82
2021/01/23 02:23:49;;;;;;;0.30;0.30;;;;;;;9.54;73.00;97247.44;4980490;23;20226;-82
2021/01/23 02:27:33;;;;;;;0.30;0.30;;;;;;;9.46;73.27;97247.97;4970001;23;20258;-82
2021/01/23 02:31:15;;;;;;;0.30;0.30;;;;;;;9.46;73.68;97241.84;4963551;23;20244;-82
2021/01/23 02:34:18;;;;;;;0.20;0.20;;;;;;;9.26;73.65;97214.06;4977727;23;20233;-82
2021/01/23 02:40:54;;;;;;;0.30;0.30;;;;;;;9.07;74.26;97186.31;4960188;23;20230;-82
2021/01/23 02:43:32;;;;;;;0.30;0.30;;;;;;;9.52;73.62;97219.34;4956262;23;20244;-82
2021/01/23 02:46:19;;;;;;;0.23;0.23;;;;;;;9.49;73.72;97225.25;4950438;23;20225;-82
2021/01/23 02:49:14;;;;;;;0.20;0.20;;;;;;;9.44;73.89;97211.88;4957508;29;20242;-82
2021/01/23 02:53:14;;;;;;;0.30;0.30;;;;;;;9.51;73.55;97220.44;4965909;23;20239;-82
2021/01/23 02:56:37;;;;;;;0.20;0.20;;;;;;;9.50;73.74;97211.63;4953640;23;20227;-82
2021/01/23 02:59:51;;;;;;;0.20;0.20;;;;;;;9.34;74.33;97185.97;4966984;23;20245;-83
2021/01/23 03:02:32;;;;;;;0.20;0.20;;;;;;;9.37;74.10;97201.50;4951505;23;20230;-82
2021/01/23 03:05:40;;;;;;;0.20;0.20;;;;;;;9.29;74.75;97183.31;5067116;23;20189;-82
2021/01/23 03:08:30;;;;;;;0.30;0.30;;;;;;;9.38;74.72;97200.41;4963871;23;20231;-82
2021/01/23 03:11:21;;;;;;;0.23;0.23;;;;;;;9.38;74.31;97189.72;4961577;23;20270;-81
2021/01/23 03:14:41;;;;;;;0.20;0.20;;;;;;;9.24;74.22;97152.06;1400351;23;20304;-82
2021/01/23 03:18:35;;;;;;;0.30;0.30;;;;;;;9.38;74.67;97181.69;4983940;23;20239;-82
2021/01/23 03:22:11;;;;;;;0.30;0.30;;;;;;;9.30;75.03;97168.91;4946074;23;20235;-81
2021/01/23 03:25:01;;;;;;;0.30;0.30;;;;;;;9.39;74.69;97174.47;4960427;29;20168;-81
2021/01/23 03:27:50;;;;;;;0.23;0.23;;;;;;;9.36;73.89;97151.78;4944257;29;20218;-81
2021/01/23 03:31:19;;;;;;;0.20;0.20;;;;;;;9.59;73.22;97161.06;4981989;23;20233;-82
2021/01/23 03:34:43;;;;;;;0.23;0.23;;;;;;;9.71;72.98;97167.69;4953416;23;20224;-82
2021/01/23 03:38:04;;;;;;;0.23;0.23;;;;;;;9.79;72.75;97163.69;4988934;23;20258;-82
2021/01/23 03:40:40;;;;;;;0.30;0.30;;;;;;;9.80;72.78;97165.25;4442868;23;15061871;-82
2021/01/23 03:43:43;;;;;;;0.20;0.20;;;;;;;9.85;72.45;97153.72;5054111;23;20251;-82
2021/01/23 03:46:49;;;;;;;0.30;0.30;;;;;;;9.88;72.26;97147.84;4971013;23;20218;-82
2021/01/23 03:49:58;;;;;;;0.20;0.20;;;;;;;9.97;71.73;97140.84;4978100;23;20225;-82
2021/01/23 03:53:35;;;;;;;0.20;0.20;;;;;;;10.03;71.82;97121.81;4966554;23;20233;-82
2021/01/23 03:56:09;;;;;;;0.20;0.20;;;;;;;9.95;72.07;97119.72;4961131;29;20302;-82
2021/01/23 03:59:28;;;;;;;0.30;0.30;;;;;;;9.91;72.17;97126.69;4928731;23;20230;-82
2021/01/23 04:02:32;;;;;;;0.20;0.20;;;;;;;9.86;72.15;97104.53;5057685;23;20229;-82
2021/01/23 04:06:05;;;;;;;0.20;0.20;;;;;;;9.94;72.09;97125.34;4955950;23;20239;-82
2021/01/23 04:09:42;;;;;;;0.30;0.30;;;;;;;9.78;72.12;97083.72;5023691;23;20220;-81
2021/01/23 04:13:25;;;;;;;0.30;0.30;;;;;;;9.99;71.92;97118.09;5033874;23;20257;-81
2021/01/23 04:16:08;;;;;;;0.20;0.20;;;;;;;10.08;71.16;97112.97;4995650;23;20235;-82
2021/01/23 04:19:38;;;;;;;0.20;0.20;;;;;;;10.07;71.13;97085.44;5048656;23;20242;-82
2021/01/23 04:22:13;;;;;;;0.30;0.30;;;;;;;10.14;70.84;97082.44;4897254;23;20246;-81
2021/01/23 04:25:14;;;;;;;0.30;0.30;;;;;;;9.98;70.93;97057.66;4911877;23;20273;-82
2021/01/23 04:29:25;;;;;;;0.20;0.20;;;;;;;10.03;71.32;97079.00;4966870;23;20297;-82
2021/01/23 04:32:31;;;;;;;0.30;0.30;;;;;;;9.86;71.96;97080.47;4984828;23;20181;-80
2021/01/23 04:35:56;;;;;;;0.20;0.20;;;;;;;9.71;72.18;97070.66;4980287;28;20174;-82
2021/01/23 04:38:42;;;;;;;0.30;0.30;;;;;;;9.78;72.04;97091.75;5083895;23;20232;-82
2021/01/23 04:42:24;;;;;;;0.23;0.23;;;;;;;9.70;72.74;97111.84;4901171;28;20329;-82
2021/01/23 04:45:58;;;;;;;0.30;0.30;;;;;;;9.66;72.49;97113.44;4967431;23;20383;-81
2021/01/23 04:48:41;;;;;;;0.30;0.30;;;;;;;9.55;72.66;97104.69;4918908;29;20263;-82
2021/01/23 04:51:37;;;;;;;0.23;0.23;;;;;;;9.46;72.79;97106.34;4933139;23;20193;-83
2021/01/23 04:54:57;;;;;;;0.20;0.20;;;;;;;9.54;73.21;97127.13;4959038;28;20218;-82
2021/01/23 04:58:07;;;;;;;0.20;0.20;;;;;;;9.48;73.21;97130.09;4980204;28;20167;-82
2021/01/23 05:01:16;;;;;;;0.13;0.13;;;;;;;9.54;73.21;97124.47;4970182;23;20228;-82
2021/01/23 05:04:51;;;;;;;0.23;0.23;;;;;;;9.41;73.23;97116.22;4968490;28;20200;-82
2021/01/23 05:08:03;;;;;;;0.30;0.30;;;;;;;9.36;73.14;97103.69;4935281;23;20230;-82
2021/01/23 05:10:56;;;;;;;0.30;0.30;;;;;;;9.22;73.46;97092.78;4899125;23;20219;-81
2021/01/23 05:14:37;;;;;;;0.20;0.20;;;;;;;9.18;73.68;97099.75;4970535;23;20249;-81
2021/01/23 05:18:20;;;;;;;0.30;0.30;;;;;;;9.01;74.53;97091.22;4964629;28;20183;-82
2021/01/23 05:21:11;;;;;;;0.30;0.30;;;;;;;8.89;74.85;97104.06;4978030;23;20247;-82
2021/01/23 05:24:36;;;;;;;0.30;0.30;;;;;;;8.64;75.31;97070.19;4927596;23;20237;-82
2021/01/23 05:27:52;;;;;;;0.27;0.27;;;;;;;8.80;75.02;97109.16;4945373;29;20203;-81
2021/01/23 05:31:07;;;;;;;0.20;0.20;;;;;;;8.71;75.93;97117.97;4967215;23;20219;-82
2021/01/23 05:34:10;;;;;;;0.30;0.30;;;;;;;8.70;75.76;97119.84;4961943;28;20641;-82
2021/01/23 05:41:05;;;;;;;0.30;0.30;;;;;;;8.65;75.93;97143.06;4975864;23;20232;-82
2021/01/23 05:44:42;;;;;;;0.30;0.30;;;;;;;8.60;76.08;97149.19;4984136;23;20244;-82
2021/01/23 05:48:17;;;;;;;0.30;0.30;;;;;;;8.60;76.43;97154.53;4972328;23;20191;-81
2021/01/23 05:51:35;;;;;;;0.30;0.30;;;;;;;8.59;76.34;97168.13;4982491;28;20204;-81
2021/01/23 05:54:36;;;;;;;0.30;0.30;;;;;;;8.62;76.27;97176.44;4985559;23;20210;-82
2021/01/23 05:57:20;;;;;;;0.23;0.23;;;;;;;8.65;76.26;97167.09;4931215;23;20239;-82
2021/01/23 06:00:39;;;;;;;0.23;0.23;;;;;;;8.68;76.27;97170.00;4891601;23;20240;-81
2021/01/23 06:07:12;;;;;;;0.20;0.20;;;;;;;8.77;75.28;97192.44;4918073;29;20291;-81
2021/01/23 06:09:56;;;;;;;0.20;0.20;;;;;;;8.80;75.13;97191.13;4900384;23;20236;-82
2021/01/23 06:12:42;;;;;;;0.30;0.30;;;;;;;8.73;75.06;97191.38;4919869;29;20221;-81
2021/01/23 06:15:42;;;;;;;0.30;0.30;;;;;;;8.80;74.64;97191.13;4982187;23;20238;-82
2021/01/23 06:18:36;;;;;;;0.30;0.30;;;;;;;8.84;74.40;97206.34;4968152;23;20218;-82
2021/01/23 06:21:54;;;;;;;0.30;0.30;;;;;;;8.82;75.07;97202.31;4983984;23;20239;-82
2021/01/23 06:24:58;;;;;;;0.20;0.20;;;;;;;8.86;74.89;97216.75;4984459;23;20236;-81
2021/01/23 06:28:03;;;;;;;0.20;0.20;;;;;;;8.78;75.23;97225.28;4957917;23;20235;-81
2021/01/23 06:30:53;;;;;;;0.30;0.30;;;;;;;8.89;75.14;97237.59;4970041;23;20241;-81
2021/01/23 06:33:58;;;;;;;0.30;0.30;;;;;;;8.79;74.56;97232.22;5006390;23;20224;-81
2021/01/23 06:37:21;;;;;;;0.30;0.30;;;;;;;8.90;75.06;97238.38;4973549;23;20253;-79
2021/01/23 06:40:16;;;;;;;0.20;0.20;;;;;;;8.90;74.71;97241.06;4979526;28;20266;-80
2021/01/23 06:46:22;;;;;;;0.20;0.20;;;;;;;9.08;74.23;97244.00;4969074;23;20644;-82
2021/01/23 06:53:32;;;;;;;0.30;0.30;;;;;;;9.10;73.95;97249.88;4902280;23;20249;-82
2021/01/23 06:56:29;;;;;;;0.30;0.30;;;;;;;9.26;72.99;97259.50;5007025;23;20225;-81
2021/01/23 07:08:04;;;;;;;0.20;0.20;;;;;;;9.36;72.34;97263.22;1367286;23;20437;-81
2021/01/23 07:11:52;;;;;;;0.20;0.20;;;;;;;9.43;71.85;97261.88;4959930;23;20206;-81
2021/01/23 07:15:55;;;;;;;0.20;0.20;;;;;;;9.62;70.67;97276.28;4957873;23;20253;-81
2021/01/23 07:22:33;;;;;;;0.30;0.30;;;;;;;9.85;69.48;97290.13;5019283;23;20241;-80
2021/01/23 07:25:32;;;;;;;0.20;0.20;;;;;;;9.66;69.36;97269.31;4990924;23;20260;-79
2021/01/23 07:29:37;;;;;;;0.20;0.20;;;;;;;9.87;69.11;97298.69;5229677;23;20237;-82
2021/01/23 07:32:49;;;;;;;0.30;0.30;;;;;;;9.95;68.60;97298.13;5213050;23;20238;-80
2021/01/23 07:35:26;;;;;;;0.30;0.30;;;;;;;9.92;68.35;97290.66;4951926;23;20242;-80
2021/01/23 07:39:04;;;;;;;0.30;0.30;;;;;;;9.99;68.32;97301.84;4951134;23;20214;-82
2021/01/23 07:42:09;;;;;;;0.30;0.30;;;;;;;9.92;68.43;97312.06;5136765;23;20298;31
2021/01/23 07:45:59;;;;;;;0.20;0.20;;;;;;;9.64;68.12;97286.72;806874;23;20502;-82
2021/01/23 07:49:30;;;;;;;0.30;0.30;;;;;;;9.68;68.52;97315.31;4986093;23;20253;-82
2021/01/23 07:53:25;;;;;;;0.30;0.30;;;;;;;10.03;69.03;97377.84;4933891;23;20231;-82
2021/01/23 07:56:46;;;;;;;0.30;0.30;;;;;;;9.84;69.91;97363.44;4920495;23;20231;-82
2021/01/23 08:00:00;;;;;;;0.20;0.20;;;;;;;9.93;69.89;97392.03;4963364;23;20233;-83
2021/01/23 08:03:10;;;;;;;0.30;0.30;;;;;;;9.77;68.06;97392.31;5061146;23;20236;-82
2021/01/23 08:06:48;;;;;;;0.30;0.30;;;;;;;9.45;61.24;97365.84;4912060;23;20184;-82
2021/01/23 08:13:54;;;;;;;0.30;0.30;;;;;;;9.38;60.38;97387.47;4996343;23;20237;-82
2021/01/23 08:17:18;;;;;;;0.30;0.30;;;;;;;9.28;60.74;97396.28;4951098;23;20952;-82
2021/01/23 08:20:58;;;;;;;0.30;0.30;;;;;;;9.31;62.46;97428.88;4956767;28;20253;-82
2021/01/23 08:24:51;;;;;;;0.30;0.30;;;;;;;9.17;64.37;97441.94;5018319;23;20227;-81
2021/01/23 08:29:06;;;;;;;0.20;0.20;;;;;;;8.95;65.42;97458.19;5159086;23;20219;-81
2021/01/23 08:33:13;;;;;;;0.30;0.30;;;;;;;8.58;65.73;97452.16;5016891;23;20221;-82
2021/01/23 08:36:40;;;;;;;0.30;0.30;;;;;;;8.48;64.32;97476.91;4967238;23;20234;-82
2021/01/23 08:40:45;;;;;;;0.30;0.30;;;;;;;8.36;63.29;97468.28;4971265;23;20258;-84
2021/01/23 08:47:33;;;;;;;0.30;0.30;;;;;;;7.94;62.85;97462.88;4892510;29;20266;-83
2021/01/23 08:50:02;;;;;;;0.30;0.30;;;;;;;7.94;63.16;97492.22;4885273;23;20251;-83
2021/01/23 08:53:07;;;;;;;0.30;0.30;;;;;;;7.75;62.58;97520.28;4841465;29;20708;-83
2021/01/23 08:56:28;;;;;;;0.30;0.30;;;;;;;7.68;63.11;97528.50;4926053;23;20235;-83
2021/01/23 08:59:02;;;;;;;0.30;0.30;;;;;;;7.40;63.32;97497.59;4950606;28;20295;-83
2021/01/23 09:01:43;;;;;;;0.40;0.40;;;;;;;7.57;62.49;97534.78;4937718;23;20232;-83
2021/01/23 09:04:48;;;;;;;0.30;0.30;;;;;;;7.59;61.61;97540.69;4978363;23;20247;-83
2021/01/23 09:08:06;;;;;;;0.40;0.40;;;;;;;7.41;61.61;97544.50;4943836;23;20487;-83
2021/01/23 09:11:30;;;;;;;0.30;0.30;;;;;;;7.14;61.42;97516.22;5275743;23;21433;-83
2021/01/23 09:15:15;;;;;;;0.30;0.30;;;;;;;7.31;62.20;97560.34;5190992;23;20272;-82
2021/01/23 09:18:17;;;;;;;0.30;0.30;;;;;;;7.15;64.34;97545.22;5438565;23;20239;-81
2021/01/23 09:21:32;;;;;;;0.30;0.30;;;;;;;7.03;61.99;97563.19;5064899;23;20230;-83
2021/01/23 09:24:19;;;;;;;0.30;0.30;;;;;;;7.04;63.83;97572.81;4935060;29;20547;-83
2021/01/23 09:33:28;;;;;;;0.30;0.30;;;;;;;6.55;67.22;97534.59;5376234;23;20251;-83
2021/01/23 09:36:42;;;;;;;0.40;0.40;;;;;;;6.69;67.70;97590.94;4922630;29;20675;-83
2021/01/23 09:39:52;;;;;;;0.30;0.30;;;;;;;6.35;67.60;97547.56;4849462;29;20222;-83
2021/01/23 09:43:30;;;;;;;0.30;0.30;;;;;;;6.33;68.00;97558.47;4840673;29;20294;-83
2021/01/23 09:49:50;;;;;;;0.30;0.30;;;;;;;6.44;67.35;97578.06;4950353;23;20243;-83
2021/01/23 09:52:59;;;;;;;0.40;0.40;;;;;;;6.35;68.16;97564.34;4927279;29;20224;-82
2021/01/23 09:56:13;;;;;;;0.40;0.40;;;;;;;6.48;67.01;97579.19;4925490;23;20230;-82
2021/01/23 10:06:54;;;;;;;0.33;0.33;;;;;;;6.10;64.17;97548.81;4973616;23;20264;-82
2021/01/23 10:09:39;;;;;;;0.40;0.40;;;;;;;6.24;64.44;97554.59;4966850;23;20233;-80
2021/01/23 10:12:35;;;;;;;0.40;0.40;;;;;;;6.41;64.49;97587.31;4974983;23;20243;-82
2021/01/23 10:15:42;;;;;;;0.30;0.30;;;;;;;6.38;64.49;97585.16;4930487;23;20255;31
2021/01/23 10:19:11;;;;;;;0.40;0.40;;;;;;;6.42;63.78;97564.19;4983326;23;20220;-82
2021/01/23 10:22:01;;;;;;;0.30;0.30;;;;;;;6.35;62.89;97582.16;4979933;23;20229;-82
2021/01/23 10:25:06;;;;;;;0.40;0.40;;;;;;;6.17;62.54;97562.72;4952544;23;20240;-82
2021/01/23 10:28:20;;;;;;;0.40;0.40;;;;;;;6.41;62.33;97600.63;4939591;29;20280;-79
2021/01/23 10:31:02;;;;;;;0.30;0.30;;;;;;;6.46;61.30;97621.97;4940487;29;20237;-81
2021/01/23 10:33:54;;;;;;;0.40;0.40;;;;;;;6.27;63.05;97604.63;4949012;23;20224;-82
2021/01/23 10:36:52;;;;;;;0.30;0.30;;;;;;;6.44;61.92;97625.94;4926021;23;20239;-82
2021/01/23 10:40:21;;;;;;;0.40;0.40;;;;;;;6.35;62.39;97619.38;4968056;23;20280;-81
2021/01/23 10:43:42;;;;;;;0.40;0.40;;;;;;;6.23;61.72;97595.53;4968980;29;20209;-82
2021/01/23 10:46:32;;;;;;;0.30;0.30;;;;;;;6.54;60.29;97626.09;4977598;29;20607;-82
2021/01/23 10:49:06;;;;;;;0.30;0.30;;;;;;;6.51;60.56;97621.25;4961279;29;20433;-81
2021/01/23 10:52:14;;;;;;;0.30;0.30;;;;;;;6.39;60.71;97613.34;4985558;23;20229;-82
2021/01/23 10:55:21;;;;;;;0.37;0.37;;;;;;;6.45;61.29;97612.38;4949127;23;20240;-81
2021/01/23 10:58:22;;;;;;;0.30;0.30;;;;;;;6.54;59.74;97602.94;4938251;29;20231;-81
2021/01/23 11:01:14;;;;;;;0.30;0.30;;;;;;;6.68;59.45;97605.28;5117481;23;20298;-82
2021/01/23 11:04:06;;;;;;;0.30;0.30;;;;;;;6.57;59.47;97599.00;4970098;28;20262;-82
2021/01/23 11:06:58;;;;;;;0.40;0.40;;;;;;;6.71;60.81;97612.78;4958040;29;20573;-82
2021/01/23 11:10:53;;;;;;;0.40;0.40;;;;;;;6.74;59.55;97613.09;5086197;23;20195;-81
2021/01/23 11:13:35;;;;;;;0.30;0.30;;;;;;;6.65;60.28;97598.59;4986823;23;20343;-82
2021/01/23 11:16:19;;;;;;;0.40;0.40;;;;;;;6.70;59.24;97605.84;4952300;23;20231;-82
2021/01/23 11:18:53;;;;;;;0.40;0.40;;;;;;;6.38;60.15;97547.91;4948692;23;20353;-82
2021/01/23 11:22:07;;;;;;;0.40;0.40;;;;;;;6.57;60.46;97585.72;4995730;23;20201;-82
2021/01/23 11:25:07;;;;;;;0.30;0.30;;;;;;;6.54;59.81;97580.84;4970384;23;20334;-82
2021/01/23 11:28:01;;;;;;;0.30;0.30;;;;;;;6.53;58.72;97565.97;4959180;29;20171;-81
2021/01/23 11:31:19;;;;;;;0.40;0.40;;;;;;;6.80;57.65;97582.03;4964687;23;20202;-83
2021/01/23 11:34:32;;;;;;;0.30;0.30;;;;;;;6.84;57.05;97594.63;4973598;29;20210;-82
2021/01/23 11:37:17;;;;;;;0.30;0.30;;;;;;;6.64;56.63;97555.22;4978080;23;20230;-81
2021/01/23 11:40:03;;;;;;;0.30;0.30;;;;;;;6.81;56.70;97592.44;4939788;23;20254;-82
2021/01/23 11:42:47;;;;;;;0.30;0.30;;;;;;;6.80;56.25;97603.34;4957137;29;20246;-81
2021/01/23 11:46:41;;;;;;;0.40;0.40;;;;;;;6.64;56.85;97565.03;4899658;29;20261;-81
2021/01/23 11:49:33;;;;;;;0.30;0.30;;;;;;;6.75;56.58;97572.13;4930011;23;20230;-82
2021/01/23 11:52:12;;;;;;;0.20;0.20;;;;;;;6.74;55.44;97562.53;4945818;23;20240;-81
2021/01/23 11:54:50;;;;;;;0.40;0.40;;;;;;;6.94;55.43;97580.66;4877394;23;20242;-82
2021/01/23 11:57:19;;;;;;;0.33;0.33;;;;;;;6.99;55.06;97572.72;4959187;23;20246;-80
2021/01/23 11:59:47;;;;;;;0.30;0.30;;;;;;;6.96;55.11;97566.03;4887519;23;20223;-80
2021/01/23 12:02:47;;;;;;;0.30;0.30;;;;;;;7.06;54.89;97576.00;4915927;29;20277;-80
2021/01/23 12:05:36;;;;;;;0.33;0.33;;;;;;;7.00;54.74;97574.31;4917261;23;20205;-79
2021/01/23 12:08:58;;;;;;;0.30;0.30;;;;;;;7.11;54.71;97591.25;4910656;23;20249;-80
2021/01/23 12:11:47;;;;;;;0.37;0.37;;;;;;;7.10;54.90;97590.44;4927623;23;20231;-82
2021/01/23 12:15:16;;;;;;;0.30;0.30;;;;;;;7.05;55.34;97585.03;4951890;23;20253;-80
2021/01/23 12:17:44;;;;;;;0.30;0.30;;;;;;;7.04;54.16;97586.13;4901766;23;20263;-80
2021/01/23 12:20:35;;;;;;;0.30;0.30;;;;;;;6.99;55.26;97584.19;4940468;23;20233;31
2021/01/23 12:23:32;;;;;;;0.40;0.40;;;;;;;6.96;55.42;97568.69;4817177;23;20216;-80
2021/01/23 12:26:28;;;;;;;0.30;0.30;;;;;;;6.99;54.95;97576.22;4961670;23;20309;-80
2021/01/23 12:29:14;;;;;;;0.30;0.30;;;;;;;6.95;55.50;97571.63;4960031;28;20217;-80
2021/01/23 12:31:42;;;;;;;0.30;0.30;;;;;;;6.89;55.08;97575.25;4944087;28;20250;-79
2021/01/23 12:34:31;;;;;;;0.40;0.40;;;;;;;6.78;55.69;97554.84;4973844;23;20231;-80
2021/01/23 12:37:31;;;;;;;0.30;0.30;;;;;;;6.80;56.17;97558.09;4927022;29;20247;-80
2021/01/23 12:40:35;;;;;;;0.30;0.30;;;;;;;6.96;56.19;97560.69;4952349;23;20242;-80
2021/01/23 12:43:45;;;;;;;0.40;0.40;;;;;;;6.92;56.47;97558.78;4955339;28;20307;-81
2021/01/23 12:46:12;;;;;;;0.40;0.40;;;;;;;6.72;58.03;97553.19;4946898;23;20168;-80
2021/01/23 12:48:51;;;;;;;0.30;0.30;;;;;;;6.74;60.54;97575.84;4913380;23;20243;-80
2021/01/23 12:51:37;;;;;;;0.30;0.30;;;;;;;6.61;61.76;97589.50;4941624;29;20289;-80
2021/01/23 13:01:10;;;;;;;0.30;0.30;;;;;;;6.08;63.26;97550.09;4953855;23;20247;-81
2021/01/23 13:03:40;;;;;;;0.40;0.40;;;;;;;5.93;61.98;97544.50;4931637;29;20226;-80
2021/01/23 13:06:26;;;;;;;0.33;0.33;;;;;;;5.99;62.52;97564.81;4956628;23;20234;-80
2021/01/23 13:12:27;;;;;;;0.40;0.40;;;;;;;5.80;62.29;97529.66;4947386;23;20246;-80
2021/01/23 13:15:09;;;;;;;0.40;0.40;;;;;;;6.05;61.48;97563.88;4974767;23;20222;-80
2021/01/23 13:17:51;;;;;;;0.33;0.33;;;;;;;6.07;61.98;97572.38;4950525;28;20277;-81
2021/01/23 13:20:42;;;;;;;0.40;0.40;;;;;;;6.20;61.98;97598.69;4919958;23;20306;-79
2021/01/23 13:23:55;;;;;;;0.30;0.30;;;;;;;6.25;62.20;97596.13;4968882;23;20276;-82
2021/01/23 13:27:01;;;;;;;0.40;0.40;;;;;;;6.30;62.38;97590.06;4802931;24;20246;-80
2021/01/23 13:29:48;;;;;;;0.30;0.30;;;;;;;6.34;61.04;97576.06;4913635;29;20227;-80
2021/01/23 13:32:46;;;;;;;0.30;0.30;;;;;;;6.46;60.49;97576.75;4937540;23;20218;-80
2021/01/23 13:36:09;;;;;;;0.40;0.40;;;;;;;6.60;60.76;97578.03;4931092;28;20199;-79
2021/01/23 13:39:13;;;;;;;0.30;0.30;;;;;;;6.70;60.45;97569.41;4904772;23;20740;31
2021/01/23 13:42:04;;;;;;;0.30;0.30;;;;;;;6.78;60.59;97571.63;4907308;23;20228;-80
2021/01/23 13:44:37;;;;;;;0.30;0.30;;;;;;;6.88;59.83;97571.78;4941241;29;20232;-79
2021/01/23 13:47:39;;;;;;;0.30;0.30;;;;;;;6.98;58.12;97581.75;4934947;23;20231;-79
2021/01/23 13:50:12;;;;;;;0.30;0.30;;;;;;;6.87;57.02;97543.53;4879516;23;20242;-79
2021/01/23 13:53:00;;;;;;;0.30;0.30;;;;;;;6.96;56.84;97576.69;4880644;23;20228;-80
2021/01/23 13:55:34;;;;;;;0.40;0.40;;;;;;;6.72;55.83;97522.03;4887282;23;20200;-80
2021/01/23 13:58:25;;;;;;;0.40;0.40;;;;;;;6.84;54.87;97540.56;4990879;23;20247;-80
2021/01/23 14:02:01;;;;;;;0.40;0.40;;;;;;;6.85;54.31;97558.16;4960549;23;20219;-81
2021/01/23 14:05:00;;;;;;;0.20;0.20;;;;;;;6.81;55.88;97565.81;4989052;23;20234;-81
2021/01/23 14:08:05;;;;;;;0.30;0.30;;;;;;;6.79;54.85;97562.59;4969311;28;20250;-80
2021/01/23 14:11:26;;;;;;;0.40;0.40;;;;;;;6.81;53.83;97570.34;4986471;23;20226;-80
2021/01/23 14:14:06;;;;;;;0.30;0.30;;;;;;;6.91;54.07;97565.16;4969167;28;20206;-80
2021/01/23 14:16:58;;;;;;;0.30;0.30;;;;;;;6.88;54.02;97569.13;4976009;28;20166;-80
2021/01/23 14:19:28;;;;;;;0.30;0.30;;;;;;;6.75;54.43;97563.34;4976508;28;20183;-80
2021/01/23 14:21:55;;;;;;;0.40;0.40;;;;;;;6.63;54.45;97547.47;4955003;29;20324;-80
2021/01/23 14:24:43;;;;;;;0.40;0.40;;;;;;;6.66;55.23;97543.53;4955725;28;20230;-80
2021/01/23 14:27:17;;;;;;;0.40;0.40;;;;;;;6.68;54.75;97550.19;4942145;29;20219;-80
2021/01/23 14:29:46;;;;;;;0.40;0.40;;;;;;;6.70;53.83;97550.78;4973606;23;20305;-80
2021/01/23 14:32:22;;;;;;;0.30;0.30;;;;;;;6.64;53.89;97541.91;4954761;28;20235;-80
2021/01/23 14:34:55;;;;;;;0.40;0.40;;;;;;;6.59;54.04;97557.00;4969108;28;20235;-80
2021/01/23 14:37:29;;;;;;;0.40;0.40;;;;;;;6.55;54.49;97539.91;4945229;23;20221;-80
2021/01/23 14:40:23;;;;;;;0.40;0.40;;;;;;;6.63;53.29;97544.81;4978048;23;20541;-80
2021/01/23 14:42:51;;;;;;;0.30;0.30;;;;;;;6.49;53.40;97525.72;4905905;29;20255;-79
2021/01/23 14:45:19;;;;;;;0.30;0.30;;;;;;;6.38;54.17;97508.03;4953128;29;20239;-80
2021/01/23 14:47:47;;;;;;;0.30;0.30;;;;;;;6.43;54.47;97534.69;4940220;23;20244;-80
2021/01/23 14:50:20;;;;;;;0.40;0.40;;;;;;;6.39;55.30;97535.44;4934292;29;20307;-79
2021/01/23 14:53:19;;;;;;;0.40;0.40;;;;;;;6.52;55.15;97551.03;5048177;23;20648;-80
2021/01/23 14:56:10;;;;;;;0.30;0.30;;;;;;;6.58;54.44;97547.38;4969192;23;20216;-79
2021/01/23 14:59:15;;;;;;;0.20;0.20;;;;;;;6.42;55.66;97533.09;4927764;29;20239;-80
2021/01/23 15:02:15;;;;;;;0.30;0.30;;;;;;;6.47;54.39;97559.75;5027218;23;20230;-79
2021/01/23 15:05:09;;;;;;;0.30;0.30;;;;;;;6.24;54.39;97537.84;4879621;23;20238;-79
2021/01/23 15:08:17;;;;;;;0.20;0.20;;;;;;;6.30;55.89;97548.31;4841304;29;20266;-79
2021/01/23 15:11:22;;;;;;;0.30;0.30;;;;;;;6.33;56.81;97558.47;4942259;23;20237;-80
2021/01/23 15:14:17;;;;;;;0.40;0.40;;;;;;;6.07;56.65;97530.66;4977626;29;20209;-79
2021/01/23 15:17:14;;;;;;;0.30;0.30;;;;;;;6.27;57.01;97558.63;4965516;23;20220;31
2021/01/23 15:20:14;;;;;;;0.40;0.40;;;;;;;6.12;56.19;97529.94;4867561;23;20265;-79
2021/01/23 15:23:34;;;;;;;0.30;0.30;;;;;;;6.26;55.86;97559.66;4280804;23;18208196;-79
2021/01/23 15:26:59;;;;;;;0.40;0.40;;;;;;;6.23;55.19;97560.16;4975535;23;20305;-80
2021/01/23 15:29:56;;;;;;;0.40;0.40;;;;;;;6.03;55.76;97520.75;4986306;23;20219;-79
2021/01/23 15:32:49;;;;;;;0.40;0.40;;;;;;;6.08;56.64;97552.75;4954928;23;20194;-79
2021/01/23 15:35:58;;;;;;;0.33;0.33;;;;;;;5.99;56.90;97548.88;4939686;23;20242;-80
2021/01/23 15:39:14;;;;;;;0.40;0.40;;;;;;;5.96;56.83;97555.47;4971469;23;20229;-79
2021/01/23 15:41:41;;;;;;;0.40;0.40;;;;;;;5.97;57.75;97556.28;4952402;29;20213;-79
2021/01/23 15:45:00;;;;;;;0.40;0.40;;;;;;;5.88;57.37;97549.75;5057902;23;20221;-79
2021/01/23 15:47:40;;;;;;;0.40;0.40;;;;;;;5.83;57.19;97557.59;4963748;23;20229;-80
2021/01/23 15:50:33;;;;;;;0.30;0.30;;;;;;;5.78;56.69;97567.06;5032600;23;20224;-79
2021/01/23 15:53:28;;;;;;;0.40;0.40;;;;;;;5.59;57.48;97563.03;4957344;28;20275;-79
2021/01/23 15:55:55;;;;;;;0.40;0.40;;;;;;;5.67;56.67;97572.47;4969758;23;20213;-79
2021/01/23 15:58:38;;;;;;;0.30;0.30;;;;;;;5.62;57.55;97583.00;4957701;28;20538;-79
2021/01/23 16:01:08;;;;;;;0.30;0.30;;;;;;;5.55;58.28;97577.03;5000025;23;20284;-78
2021/01/23 16:03:39;;;;;;;0.30;0.30;;;;;;;5.43;57.65;97561.13;4924137;29;20236;-79
2021/01/23 16:06:48;;;;;;;0.30;0.30;;;;;;;5.50;58.13;97585.72;4929133;23;20458;-82
2021/01/23 16:10:00;;;;;;;0.40;0.40;;;;;;;5.40;59.04;97595.31;5052901;23;20271;-82
2021/01/23 16:12:59;;;;;;;0.30;0.30;;;;;;;5.38;59.63;97602.69;4962062;23;21412;-82
2021/01/23 16:15:40;;;;;;;0.40;0.40;;;;;;;5.40;59.30;97598.78;4945445;23;20306;-82
2021/01/23 16:18:21;;;;;;;0.30;0.30;;;;;;;5.26;59.63;97589.47;4950283;23;20219;-82